Portville, New York
Current Conditions -  °F | °C
As of 9:35 PM on Tuesday 21 Oct 2014 (Local Time) from KOLE Reporting Station
Drizzle Drizzle  
Wind Chill: 41°   Ceiling: 300
Heat Index: 45°   Visibility: 1.2mi
Dew Point: 45°   Wind: 6mph
Humidity: 100%   Direction: 10°N
Pressure: 29.99"   Gusts: NA
Location:  42.04°N, 78.34°W
Report Text: KOLE 220135Z AUTO 01005KT 1 1/4SM -DZ OVC003 07/07 A2999 RMK AO2
Loading
Personal Weather Stations






























Interactive Weather Map
Tropical Storm Tracking
New forecast layout! Learn more

10-Day Weather Forecast

Advertisements
Track Severe Weather on mobile